IBB51KK GCRR-GCLP
Flight info
| Callsign | IBB51KK |
|---|---|
| Flight time | 0h 38m |
| Altitude | 12000 |
| Route | LORPO |
| Aircraft | AT76/M-SDFGRY/LB1 |
Departure
| Time | 2026-04-30 20:51 |
|---|---|
| Airport | César Manrique-Lanzarote Airport (GCRR) |
Arrival
| Time | 2026-04-30 21:29 |
|---|---|
| Airport | Gran Canaria Airport (GCLP) |
| Time | Latitude | Longitude | Altitude | Speed | Heading |
|---|---|---|---|---|---|
| 2026-04-30 20:38 | 28.95153 | -13.60623 | 47 ft | 0 kts | 297° |
| 2026-04-30 20:45 | 28.95151 | -13.60619 | 19 ft | 2 kts | 297° |
| 2026-04-30 20:45 | 28.95141 | -13.60597 | 44 ft | 4 kts | 298° |
| 2026-04-30 20:45 | 28.95133 | -13.60586 | 42 ft | 3 kts | 4° |
| 2026-04-30 20:46 | 28.95143 | -13.60528 | 47 ft | 5 kts | 103° |
| 2026-04-30 20:46 | 28.95128 | -13.60485 | 47 ft | 9 kts | 116° |
| 2026-04-30 20:47 | 28.94996 | -13.60468 | 47 ft | 16 kts | 206° |
| 2026-04-30 20:47 | 28.94868 | -13.60541 | 47 ft | 25 kts | 206° |
| 2026-04-30 20:48 | 28.94568 | -13.60717 | 38 ft | 24 kts | 207° |
| 2026-04-30 20:48 | 28.94414 | -13.60804 | 28 ft | 25 kts | 207° |
| 2026-04-30 20:48 | 28.94265 | -13.60890 | 25 ft | 23 kts | 207° |
| 2026-04-30 20:48 | 28.94130 | -13.60970 | 25 ft | 21 kts | 207° |
| 2026-04-30 20:49 | 28.93998 | -13.61047 | 22 ft | 22 kts | 206° |
| 2026-04-30 20:49 | 28.93867 | -13.61120 | 21 ft | 20 kts | 208° |
| 2026-04-30 20:49 | 28.93750 | -13.61190 | 21 ft | 18 kts | 206° |
| 2026-04-30 20:50 | 28.93611 | -13.61118 | 20 ft | 10 kts | 116° |
| 2026-04-30 20:50 | 28.93613 | -13.61060 | 23 ft | 12 kts | 46° |
| 2026-04-30 20:50 | 28.93668 | -13.61028 | 22 ft | 8 kts | 25° |
| 2026-04-30 20:50 | 28.93871 | -13.60911 | 26 ft | 62 kts | 25° |
| 2026-04-30 20:51 | 28.94425 | -13.60600 | 29 ft | 112 kts | 27° |
| 2026-04-30 20:51 | 28.95950 | -13.59722 | 809 ft | 123 kts | 35° |
| 2026-04-30 20:51 | 28.96661 | -13.59168 | 1299 ft | 125 kts | 38° |
| 2026-04-30 20:52 | 28.97343 | -13.58542 | 1768 ft | 128 kts | 36° |
| 2026-04-30 20:52 | 28.98065 | -13.57879 | 1964 ft | 142 kts | 38° |
| 2026-04-30 20:52 | 28.99710 | -13.56236 | 2248 ft | 169 kts | 39° |
| 2026-04-30 20:53 | 29.00449 | -13.55511 | 2443 ft | 175 kts | 37° |
| 2026-04-30 20:53 | 29.01318 | -13.54531 | 2765 ft | 178 kts | 46° |
| 2026-04-30 20:53 | 29.02088 | -13.53414 | 3153 ft | 180 kts | 50° |
| 2026-04-30 20:54 | 29.03628 | -13.51069 | 3702 ft | 188 kts | 50° |
| 2026-04-30 20:54 | 29.04514 | -13.50002 | 4105 ft | 181 kts | 28° |
| 2026-04-30 20:54 | 29.05676 | -13.49627 | 4511 ft | 175 kts | 353° |
| 2026-04-30 20:55 | 29.07058 | -13.51683 | 4878 ft | 189 kts | 268° |
| 2026-04-30 20:55 | 29.06541 | -13.53069 | 5149 ft | 197 kts | 231° |
| 2026-04-30 20:55 | 29.05551 | -13.54151 | 5423 ft | 197 kts | 226° |
| 2026-04-30 20:56 | 29.03590 | -13.56219 | 6189 ft | 188 kts | 227° |
| 2026-04-30 20:56 | 29.02642 | -13.57249 | 6467 ft | 190 kts | 229° |
| 2026-04-30 20:56 | 29.00899 | -13.59473 | 7014 ft | 189 kts | 232° |
| 2026-04-30 20:57 | 29.00063 | -13.60630 | 7302 ft | 189 kts | 234° |
| 2026-04-30 20:57 | 28.99401 | -13.61577 | 7529 ft | 189 kts | 233° |
| 2026-04-30 20:57 | 28.98573 | -13.62732 | 7815 ft | 188 kts | 233° |
| 2026-04-30 20:58 | 28.96895 | -13.65011 | 8339 ft | 188 kts | 232° |
| 2026-04-30 20:58 | 28.96050 | -13.66150 | 8605 ft | 188 kts | 232° |
| 2026-04-30 20:58 | 28.95205 | -13.67286 | 8890 ft | 188 kts | 232° |
| 2026-04-30 20:58 | 28.94362 | -13.68422 | 9151 ft | 188 kts | 232° |
| 2026-04-30 20:59 | 28.92670 | -13.70694 | 9697 ft | 188 kts | 232° |
| 2026-04-30 20:59 | 28.91827 | -13.71826 | 9958 ft | 188 kts | 231° |
| 2026-04-30 21:00 | 28.90134 | -13.74098 | 10399 ft | 188 kts | 232° |
| 2026-04-30 21:00 | 28.88435 | -13.76378 | 10854 ft | 188 kts | 232° |
| 2026-04-30 21:01 | 28.86728 | -13.78667 | 11291 ft | 190 kts | 232° |
| 2026-04-30 21:01 | 28.85871 | -13.79816 | 11514 ft | 190 kts | 232° |
| 2026-04-30 21:01 | 28.84058 | -13.82026 | 11938 ft | 192 kts | 225° |
| 2026-04-30 21:02 | 28.83047 | -13.83030 | 12117 ft | 194 kts | 224° |
| 2026-04-30 21:02 | 28.81994 | -13.84067 | 12120 ft | 205 kts | 224° |
| 2026-04-30 21:02 | 28.80902 | -13.85169 | 12131 ft | 213 kts | 225° |
| 2026-04-30 21:02 | 28.79786 | -13.86327 | 12144 ft | 220 kts | 225° |
| 2026-04-30 21:03 | 28.78647 | -13.87519 | 12159 ft | 225 kts | 225° |
| 2026-04-30 21:03 | 28.77486 | -13.88740 | 12175 ft | 229 kts | 225° |
| 2026-04-30 21:03 | 28.76307 | -13.89980 | 12192 ft | 232 kts | 225° |
| 2026-04-30 21:03 | 28.75112 | -13.91232 | 12206 ft | 234 kts | 225° |
| 2026-04-30 21:04 | 28.73909 | -13.92498 | 12216 ft | 236 kts | 225° |
| 2026-04-30 21:04 | 28.72699 | -13.93766 | 12226 ft | 237 kts | 225° |
| 2026-04-30 21:04 | 28.70264 | -13.96326 | 12249 ft | 239 kts | 225° |
| 2026-04-30 21:05 | 28.69038 | -13.97610 | 12260 ft | 240 kts | 225° |
| 2026-04-30 21:05 | 28.67811 | -13.98898 | 12275 ft | 240 kts | 225° |
| 2026-04-30 21:05 | 28.66756 | -14.00005 | 12286 ft | 240 kts | 225° |
| 2026-04-30 21:05 | 28.65587 | -14.01230 | 12294 ft | 241 kts | 225° |
| 2026-04-30 21:06 | 28.64354 | -14.02522 | 12310 ft | 241 kts | 225° |
| 2026-04-30 21:06 | 28.63118 | -14.03817 | 12318 ft | 241 kts | 225° |
| 2026-04-30 21:06 | 28.61881 | -14.05112 | 12296 ft | 243 kts | 225° |
| 2026-04-30 21:06 | 28.60631 | -14.06422 | 12229 ft | 246 kts | 225° |
| 2026-04-30 21:07 | 28.59370 | -14.07743 | 12203 ft | 246 kts | 225° |
| 2026-04-30 21:07 | 28.58110 | -14.09059 | 12188 ft | 246 kts | 225° |
| 2026-04-30 21:07 | 28.56851 | -14.10376 | 12179 ft | 245 kts | 225° |
| 2026-04-30 21:07 | 28.55603 | -14.11692 | 12176 ft | 243 kts | 228° |
| 2026-04-30 21:08 | 28.54563 | -14.13194 | 12173 ft | 242 kts | 237° |
| 2026-04-30 21:08 | 28.53613 | -14.14769 | 12173 ft | 242 kts | 237° |
| 2026-04-30 21:08 | 28.52654 | -14.16342 | 12173 ft | 242 kts | 236° |
| 2026-04-30 21:08 | 28.51669 | -14.17858 | 12172 ft | 242 kts | 234° |
| 2026-04-30 21:09 | 28.50643 | -14.19371 | 12173 ft | 241 kts | 234° |
| 2026-04-30 21:09 | 28.49621 | -14.20883 | 12168 ft | 241 kts | 234° |
| 2026-04-30 21:09 | 28.48600 | -14.22394 | 12164 ft | 241 kts | 234° |
| 2026-04-30 21:09 | 28.47578 | -14.23904 | 12166 ft | 241 kts | 234° |
| 2026-04-30 21:10 | 28.46557 | -14.25411 | 12165 ft | 241 kts | 234° |
| 2026-04-30 21:10 | 28.45538 | -14.26917 | 12167 ft | 240 kts | 234° |
| 2026-04-30 21:10 | 28.44518 | -14.28425 | 12167 ft | 240 kts | 234° |
| 2026-04-30 21:10 | 28.43499 | -14.29930 | 12167 ft | 240 kts | 234° |
| 2026-04-30 21:11 | 28.42480 | -14.31438 | 12170 ft | 240 kts | 234° |
| 2026-04-30 21:11 | 28.41459 | -14.32943 | 12168 ft | 240 kts | 234° |
| 2026-04-30 21:11 | 28.40439 | -14.34451 | 12167 ft | 240 kts | 234° |
| 2026-04-30 21:11 | 28.39418 | -14.35954 | 12168 ft | 240 kts | 234° |
| 2026-04-30 21:12 | 28.38399 | -14.37457 | 12167 ft | 240 kts | 234° |
| 2026-04-30 21:12 | 28.37378 | -14.38963 | 12167 ft | 240 kts | 234° |
| 2026-04-30 21:12 | 28.36358 | -14.40465 | 12169 ft | 240 kts | 234° |
| 2026-04-30 21:12 | 28.35339 | -14.41969 | 12168 ft | 241 kts | 234° |
| 2026-04-30 21:13 | 28.34315 | -14.43473 | 12167 ft | 241 kts | 234° |
| 2026-04-30 21:13 | 28.33294 | -14.44978 | 12168 ft | 241 kts | 234° |
| 2026-04-30 21:13 | 28.32271 | -14.46482 | 12167 ft | 241 kts | 234° |
| 2026-04-30 21:13 | 28.31247 | -14.47990 | 12168 ft | 241 kts | 234° |
| 2026-04-30 21:14 | 28.30222 | -14.49499 | 12167 ft | 242 kts | 234° |
| 2026-04-30 21:14 | 28.29194 | -14.51007 | 12167 ft | 242 kts | 234° |
| 2026-04-30 21:14 | 28.28167 | -14.52519 | 12168 ft | 242 kts | 234° |
| 2026-04-30 21:14 | 28.27138 | -14.54027 | 12167 ft | 242 kts | 234° |
| 2026-04-30 21:15 | 28.26109 | -14.55540 | 12168 ft | 242 kts | 234° |
| 2026-04-30 21:15 | 28.25079 | -14.57051 | 12167 ft | 242 kts | 234° |
| 2026-04-30 21:15 | 28.24035 | -14.58586 | 11959 ft | 250 kts | 233° |
| 2026-04-30 21:15 | 28.22960 | -14.60171 | 11742 ft | 256 kts | 234° |
| 2026-04-30 21:16 | 28.21866 | -14.61794 | 11521 ft | 261 kts | 234° |
| 2026-04-30 21:16 | 28.20760 | -14.63444 | 11306 ft | 265 kts | 234° |
| 2026-04-30 21:16 | 28.19641 | -14.65117 | 11091 ft | 268 kts | 234° |
| 2026-04-30 21:16 | 28.18514 | -14.66808 | 10881 ft | 270 kts | 233° |
| 2026-04-30 21:17 | 28.17381 | -14.68512 | 10672 ft | 271 kts | 234° |
| 2026-04-30 21:17 | 28.16248 | -14.70221 | 10458 ft | 271 kts | 233° |
| 2026-04-30 21:17 | 28.15112 | -14.71935 | 10248 ft | 273 kts | 233° |
| 2026-04-30 21:17 | 28.13978 | -14.73664 | 10036 ft | 274 kts | 233° |
| 2026-04-30 21:18 | 28.12843 | -14.75400 | 9800 ft | 274 kts | 233° |
| 2026-04-30 21:18 | 28.11716 | -14.77139 | 9569 ft | 273 kts | 236° |
| 2026-04-30 21:18 | 28.10721 | -14.78980 | 9334 ft | 275 kts | 240° |
| 2026-04-30 21:18 | 28.09806 | -14.80858 | 9132 ft | 268 kts | 241° |
| 2026-04-30 21:19 | 28.08928 | -14.82690 | 8933 ft | 262 kts | 242° |
| 2026-04-30 21:19 | 28.08084 | -14.84459 | 8725 ft | 257 kts | 242° |
| 2026-04-30 21:19 | 28.07242 | -14.86224 | 8527 ft | 253 kts | 242° |
| 2026-04-30 21:19 | 28.06396 | -14.87994 | 8327 ft | 251 kts | 242° |
| 2026-04-30 21:20 | 28.05577 | -14.89705 | 8132 ft | 250 kts | 242° |
| 2026-04-30 21:20 | 28.04751 | -14.91428 | 7936 ft | 249 kts | 242° |
| 2026-04-30 21:20 | 28.03925 | -14.93148 | 7738 ft | 249 kts | 242° |
| 2026-04-30 21:20 | 28.03084 | -14.94882 | 7539 ft | 254 kts | 241° |
| 2026-04-30 21:21 | 28.02234 | -14.96650 | 7342 ft | 257 kts | 241° |
| 2026-04-30 21:21 | 28.01374 | -14.98440 | 7160 ft | 260 kts | 241° |
| 2026-04-30 21:21 | 27.99944 | -15.01419 | 6850 ft | 264 kts | 242° |
| 2026-04-30 21:22 | 27.99066 | -15.03248 | 6663 ft | 265 kts | 241° |
| 2026-04-30 21:22 | 27.96399 | -15.08662 | 5847 ft | 259 kts | 240° |
| 2026-04-30 21:23 | 27.95505 | -15.10418 | 5587 ft | 257 kts | 240° |
| 2026-04-30 21:23 | 27.94595 | -15.12156 | 5345 ft | 255 kts | 240° |
| 2026-04-30 21:23 | 27.92819 | -15.15552 | 4994 ft | 251 kts | 240° |
| 2026-04-30 21:24 | 27.91934 | -15.17267 | 4731 ft | 254 kts | 240° |
| 2026-04-30 21:24 | 27.91057 | -15.18996 | 4531 ft | 252 kts | 241° |
| 2026-04-30 21:24 | 27.90199 | -15.20718 | 4314 ft | 251 kts | 241° |
| 2026-04-30 21:24 | 27.89356 | -15.22447 | 4066 ft | 251 kts | 243° |
| 2026-04-30 21:25 | 27.87696 | -15.25895 | 3604 ft | 244 kts | 243° |
| 2026-04-30 21:25 | 27.86910 | -15.27574 | 3359 ft | 241 kts | 243° |
| 2026-04-30 21:25 | 27.86140 | -15.29188 | 3021 ft | 222 kts | 243° |
| 2026-04-30 21:26 | 27.85612 | -15.32263 | 2303 ft | 191 kts | 285° |
| 2026-04-30 21:26 | 27.86024 | -15.33648 | 1935 ft | 177 kts | 292° |
| 2026-04-30 21:27 | 27.86873 | -15.36049 | 1369 ft | 158 kts | 295° |
| 2026-04-30 21:27 | 27.87318 | -15.37173 | 1081 ft | 154 kts | 296° |
| 2026-04-30 21:27 | 27.87786 | -15.38181 | 998 ft | 131 kts | 301° |
| 2026-04-30 21:28 | 27.88956 | -15.39676 | 678 ft | 133 kts | 332° |
| 2026-04-30 21:28 | 27.89535 | -15.39921 | 661 ft | 133 kts | 348° |
| 2026-04-30 21:28 | 27.91260 | -15.39523 | 263 ft | 121 kts | 25° |
| 2026-04-30 21:29 | 27.92049 | -15.39164 | 105 ft | 124 kts | 24° |
| 2026-04-30 21:29 | 27.93649 | -15.38458 | 57 ft | 25 kts | 17° |
| 2026-04-30 21:30 | 27.93874 | -15.38429 | 61 ft | 16 kts | 353° |
| 2026-04-30 21:31 | 27.94066 | -15.38545 | 71 ft | 9 kts | 289° |
| 2026-04-30 21:31 | 27.94068 | -15.38646 | 74 ft | 5 kts | 280° |
| 2026-04-30 21:32 | 27.94086 | -15.38700 | 84 ft | 0 kts | 291° |